createdAt,value
2023-04-16T00:00:43.666Z,8.60
2023-04-16T00:03:45.395Z,8.70
2023-04-16T00:06:47.138Z,8.70
2023-04-16T00:09:48.683Z,8.50
2023-04-16T00:12:50.246Z,8.90
2023-04-16T00:15:51.826Z,9.00
2023-04-16T00:18:53.403Z,8.80
2023-04-16T00:21:54.966Z,9.00
2023-04-16T00:24:56.761Z,8.70
2023-04-16T00:27:58.350Z,8.90
2023-04-16T00:31:01.498Z,8.90
2023-04-16T00:34:03.517Z,8.80
2023-04-16T00:37:05.302Z,8.70
2023-04-16T00:40:07.813Z,8.90
2023-04-16T00:43:09.448Z,8.90
2023-04-16T00:46:12.216Z,9.20
2023-04-16T00:49:14.574Z,9.00
2023-04-16T00:52:16.150Z,9.00
2023-04-16T00:55:18.874Z,9.00
2023-04-16T00:58:21.330Z,8.90
2023-04-16T01:01:23.210Z,9.20
2023-04-16T01:04:24.989Z,10.10
2023-04-16T01:07:26.696Z,8.80
2023-04-16T01:10:28.423Z,8.90
2023-04-16T01:13:30.514Z,9.10
2023-04-16T01:16:32.742Z,9.10
2023-04-16T01:19:38.641Z,8.90
2023-04-16T01:22:42.033Z,8.80
2023-04-16T01:25:44.015Z,8.80
2023-04-16T01:28:46.335Z,10.50
2023-04-16T01:31:48.187Z,10.70
2023-04-16T01:34:49.839Z,9.30
2023-04-16T01:37:51.475Z,9.20
2023-04-16T01:40:59.957Z,9.10
2023-04-16T01:44:01.567Z,8.80
2023-04-16T01:47:04.046Z,8.50
2023-04-16T01:50:06.542Z,9.40
2023-04-16T01:53:09.529Z,9.30
2023-04-16T01:56:11.204Z,9.20
2023-04-16T01:59:12.746Z,9.30
2023-04-16T02:02:16.113Z,9.30
2023-04-16T02:05:17.913Z,9.20
2023-04-16T02:08:19.568Z,9.40
2023-04-16T02:11:21.435Z,9.00
2023-04-16T02:14:25.463Z,9.10
2023-04-16T02:17:27.340Z,8.90
2023-04-16T02:20:29.030Z,9.10
2023-04-16T02:23:30.655Z,10.30
2023-04-16T02:26:32.352Z,10.10
2023-04-16T02:29:34.142Z,8.80
2023-04-16T02:32:35.851Z,9.60
2023-04-16T02:35:38.814Z,8.80
2023-04-16T02:38:42.960Z,8.60
2023-04-16T02:41:44.586Z,9.00
2023-04-16T02:44:46.190Z,8.80
2023-04-16T02:47:48.749Z,9.30
2023-04-16T02:50:50.518Z,9.00
2023-04-16T02:53:52.043Z,9.10
2023-04-16T02:56:53.594Z,9.40
2023-04-16T02:59:55.409Z,9.40
2023-04-16T03:02:57.083Z,8.90
2023-04-16T03:05:58.816Z,9.10
2023-04-16T03:09:00.474Z,9.10
2023-04-16T03:12:02.395Z,9.10
2023-04-16T03:15:04.640Z,9.20
2023-04-16T03:18:06.264Z,9.10
2023-04-16T03:21:07.852Z,9.10
2023-04-16T03:24:09.410Z,9.00
2023-04-16T03:27:11.009Z,9.10
2023-04-16T03:30:13.461Z,8.90
2023-04-16T03:33:15.365Z,8.90
2023-04-16T03:36:16.919Z,8.90
2023-04-16T03:39:18.473Z,9.40
2023-04-16T03:42:20.010Z,9.00
2023-04-16T03:45:21.562Z,9.40
2023-04-16T03:48:23.197Z,9.00
2023-04-16T03:51:25.033Z,9.30
2023-04-16T03:54:26.801Z,8.90
2023-04-16T03:57:28.495Z,9.00
2023-04-16T04:00:30.588Z,8.80
2023-04-16T04:03:32.351Z,11.10
2023-04-16T04:06:34.239Z,9.30
2023-04-16T04:09:36.309Z,9.30
2023-04-16T04:12:38.194Z,10.00
2023-04-16T04:15:39.893Z,9.20
2023-04-16T04:18:43.305Z,9.40
2023-04-16T04:21:45.985Z,9.00
2023-04-16T04:24:47.571Z,10.10
2023-04-16T04:27:49.363Z,9.40
2023-04-16T04:30:51.121Z,9.00
2023-04-16T04:33:52.735Z,10.80
2023-04-16T04:36:54.324Z,9.40
2023-04-16T04:39:56.145Z,9.30
2023-04-16T04:42:57.769Z,9.20
2023-04-16T04:45:59.427Z,9.20
2023-04-16T04:49:01.034Z,9.00
2023-04-16T04:52:02.636Z,9.40
2023-04-16T04:55:04.545Z,9.40
2023-04-16T04:58:07.013Z,9.10
2023-04-16T05:01:08.725Z,9.20
2023-04-16T05:04:10.393Z,10.60
2023-04-16T05:07:12.125Z,9.10
2023-04-16T05:10:14.656Z,9.40
2023-04-16T05:13:16.238Z,9.50
2023-04-16T05:16:17.865Z,9.40
2023-04-16T05:19:19.451Z,9.20
2023-04-16T05:22:21.299Z,9.30
2023-04-16T05:25:22.949Z,9.20
2023-04-16T05:28:24.539Z,10.60
2023-04-16T05:31:26.300Z,9.40
2023-04-16T05:34:27.929Z,9.50
2023-04-16T05:37:29.545Z,9.60
2023-04-16T05:40:31.968Z,9.30
2023-04-16T05:43:33.643Z,9.50
2023-04-16T05:46:35.286Z,9.30
2023-04-16T05:49:37.336Z,8.90
2023-04-16T05:52:38.956Z,9.50
2023-04-16T05:55:40.620Z,9.30
2023-04-16T05:58:42.184Z,9.40
2023-04-16T06:01:43.800Z,9.60
2023-04-16T06:04:45.547Z,9.10
2023-04-16T06:07:47.406Z,9.40
2023-04-16T06:10:49.279Z,9.30
2023-04-16T06:13:50.838Z,9.40
2023-04-16T06:16:52.420Z,9.60
2023-04-16T06:19:54.009Z,9.40
2023-04-16T06:22:56.255Z,9.50
2023-04-16T06:25:58.314Z,10.20
2023-04-16T06:28:59.892Z,9.40
2023-04-16T06:32:02.117Z,9.20
2023-04-16T06:35:04.145Z,9.80
2023-04-16T06:38:05.697Z,9.40
2023-04-16T06:41:07.296Z,9.50
2023-04-16T06:44:08.829Z,9.60
2023-04-16T06:47:10.419Z,9.50
2023-04-16T06:50:12.053Z,9.50
2023-04-16T06:53:14.205Z,9.60
2023-04-16T06:56:15.938Z,9.70
2023-04-16T06:59:17.772Z,9.40
2023-04-16T07:02:19.709Z,9.10
2023-04-16T07:05:21.391Z,9.60
2023-04-16T07:08:22.954Z,9.60
2023-04-16T07:11:25.743Z,9.70
2023-04-16T07:14:27.443Z,9.80
2023-04-16T07:17:28.979Z,9.40
2023-04-16T07:20:30.844Z,9.80
2023-04-16T07:23:32.391Z,9.40
2023-04-16T07:26:33.923Z,9.80
2023-04-16T07:29:35.456Z,10.00
2023-04-16T07:32:37.223Z,10.20
2023-04-16T07:35:38.956Z,10.20
2023-04-16T07:38:40.517Z,10.00
2023-04-16T07:41:42.997Z,10.00
2023-04-16T07:44:44.579Z,10.00
2023-04-16T07:47:46.229Z,10.00
2023-04-16T07:50:47.905Z,10.20
2023-04-16T07:53:49.467Z,9.90
2023-04-16T07:56:51.068Z,11.10
2023-04-16T07:59:52.591Z,10.20
2023-04-16T08:02:54.390Z,10.30
2023-04-16T08:05:56.224Z,10.20
2023-04-16T08:08:57.806Z,10.60
2023-04-16T08:12:00.912Z,10.00
2023-04-16T08:15:02.469Z,10.50
2023-04-16T08:18:05.871Z,11.00
2023-04-16T08:21:08.297Z,11.00
2023-04-16T08:24:10.069Z,10.90
2023-04-16T08:27:18.614Z,11.00
2023-04-16T08:30:22.215Z,10.90
2023-04-16T08:33:23.824Z,10.80
2023-04-16T08:36:25.584Z,11.10
2023-04-16T08:39:27.257Z,13.10
2023-04-16T08:42:36.873Z,11.00
2023-04-16T08:45:38.495Z,11.10
2023-04-16T08:48:43.418Z,11.00
2023-04-16T08:51:52.008Z,11.70
2023-04-16T08:55:05.568Z,11.10
2023-04-16T08:58:21.908Z,11.20
2023-04-16T09:01:26.664Z,11.60
2023-04-16T09:04:28.868Z,11.30
2023-04-16T09:07:32.172Z,11.50
2023-04-16T09:10:34.048Z,11.60
2023-04-16T09:13:37.787Z,11.40
2023-04-16T09:16:40.834Z,11.40
2023-04-16T09:19:42.532Z,11.90
2023-04-16T09:22:44.785Z,11.60
2023-04-16T09:25:46.375Z,11.50
2023-04-16T09:28:49.361Z,11.60
2023-04-16T09:32:05.580Z,11.40
2023-04-16T09:35:07.416Z,11.50
2023-04-16T09:38:10.139Z,11.60
2023-04-16T09:41:11.727Z,11.90
2023-04-16T09:44:13.259Z,11.90
2023-04-16T09:47:15.203Z,12.30
2023-04-16T09:50:18.947Z,11.90
2023-04-16T09:53:29.160Z,12.20
2023-04-16T09:56:31.150Z,12.40
2023-04-16T09:59:35.719Z,12.40
2023-04-16T10:02:41.749Z,12.20
2023-04-16T10:05:43.773Z,12.00
2023-04-16T10:08:50.494Z,12.20
2023-04-16T10:11:52.258Z,12.50
2023-04-16T10:14:53.873Z,12.40
2023-04-16T10:17:56.925Z,12.10
2023-04-16T10:20:59.240Z,12.50
2023-04-16T10:24:01.123Z,12.30
2023-04-16T10:27:02.891Z,14.00
2023-04-16T10:30:05.978Z,12.80
2023-04-16T10:33:07.936Z,12.40
2023-04-16T10:36:13.214Z,14.60
2023-04-16T10:39:21.752Z,11.00
2023-04-16T10:42:23.382Z,12.70
2023-04-16T10:45:37.919Z,12.80
2023-04-16T10:48:49.218Z,12.60
2023-04-16T10:51:59.754Z,13.10
2023-04-16T10:55:01.644Z,13.10
2023-04-16T10:58:23.149Z,12.70
2023-04-16T11:01:33.830Z,13.20
2023-04-16T11:04:37.523Z,13.40
2023-04-16T11:07:49.596Z,13.20
2023-04-16T11:10:52.236Z,13.00
2023-04-16T11:13:56.251Z,13.00
2023-04-16T11:16:57.819Z,13.30
2023-04-16T11:19:59.475Z,12.90
2023-04-16T11:23:01.252Z,14.90
2023-04-16T11:26:02.816Z,15.50
2023-04-16T11:29:14.710Z,14.10
2023-04-16T11:32:22.763Z,15.10
2023-04-16T11:35:24.485Z,13.80
2023-04-16T11:38:36.733Z,14.00
2023-04-16T11:41:52.231Z,14.30
2023-04-16T11:44:58.173Z,13.90
2023-04-16T11:47:59.756Z,14.00
2023-04-16T11:51:01.354Z,13.70
2023-04-16T11:54:02.988Z,15.30
2023-04-16T11:57:04.902Z,13.70
2023-04-16T12:00:10.716Z,13.30
2023-04-16T12:03:12.598Z,13.50
2023-04-16T12:06:14.225Z,13.10
2023-04-16T12:09:27.045Z,13.40
2023-04-16T12:12:32.618Z,14.00
2023-04-16T12:15:45.856Z,14.20
2023-04-16T12:19:01.965Z,14.00
2023-04-16T12:22:03.520Z,14.10
2023-04-16T12:25:11.586Z,14.00
2023-04-16T12:28:13.714Z,14.10
2023-04-16T12:31:15.736Z,14.30
2023-04-16T12:34:18.182Z,13.90
2023-04-16T12:37:19.761Z,14.20
2023-04-16T12:40:21.300Z,15.00
2023-04-16T12:43:23.081Z,13.80
2023-04-16T12:46:24.653Z,13.20
2023-04-16T12:49:26.230Z,13.70
2023-04-16T12:52:28.000Z,13.70
2023-04-16T12:55:29.883Z,13.80
2023-04-16T12:58:31.666Z,13.70
2023-04-16T13:01:36.038Z,13.30
2023-04-16T13:04:37.826Z,13.70
2023-04-16T13:07:39.516Z,13.40
2023-04-16T13:10:41.297Z,13.60
2023-04-16T13:13:42.832Z,16.00
2023-04-16T13:16:44.439Z,13.60
2023-04-16T13:19:48.383Z,13.80
2023-04-16T13:22:53.923Z,13.60
2023-04-16T13:25:56.269Z,13.90
2023-04-16T13:28:57.896Z,14.20
2023-04-16T13:31:59.462Z,15.40
2023-04-16T13:35:01.051Z,13.80
2023-04-16T13:38:02.850Z,14.00
2023-04-16T13:41:05.104Z,16.00
2023-04-16T13:44:07.115Z,14.30
2023-04-16T13:47:08.769Z,13.70
2023-04-16T13:50:10.992Z,14.00
2023-04-16T13:53:12.618Z,14.20
2023-04-16T13:56:14.591Z,16.30
2023-04-16T13:59:16.632Z,14.10
2023-04-16T14:02:19.008Z,14.00
2023-04-16T14:05:20.744Z,14.70
2023-04-16T14:08:22.421Z,14.50
2023-04-16T14:11:24.125Z,14.20
2023-04-16T14:14:26.147Z,14.00
2023-04-16T14:17:27.751Z,14.20
2023-04-16T14:20:29.313Z,14.30
2023-04-16T14:23:31.668Z,14.40
2023-04-16T14:26:33.281Z,14.60
2023-04-16T14:29:36.268Z,14.70
2023-04-16T14:32:38.046Z,14.50
2023-04-16T14:35:39.812Z,14.10
2023-04-16T14:38:43.191Z,15.90
2023-04-16T14:41:44.768Z,16.40
2023-04-16T14:44:46.378Z,14.30
2023-04-16T14:47:48.192Z,14.40
2023-04-16T14:50:49.823Z,14.30
2023-04-16T14:53:51.495Z,14.90
2023-04-16T14:56:53.061Z,14.90
2023-04-16T14:59:54.653Z,14.80
2023-04-16T15:02:56.505Z,14.70
2023-04-16T15:05:58.456Z,14.90
2023-04-16T15:09:00.273Z,15.20
2023-04-16T15:12:01.863Z,16.90
2023-04-16T15:15:03.551Z,15.90
2023-04-16T15:18:05.877Z,16.10
2023-04-16T15:21:07.662Z,16.10
2023-04-16T15:24:09.594Z,16.30
2023-04-16T15:27:13.739Z,18.70
2023-04-16T15:30:15.789Z,17.00
2023-04-16T15:33:17.669Z,16.70
2023-04-16T15:36:19.257Z,16.00
2023-04-16T15:39:21.700Z,16.30
2023-04-16T15:42:23.794Z,16.80
2023-04-16T15:45:25.445Z,16.90
2023-04-16T15:48:27.135Z,17.20
2023-04-16T15:51:31.450Z,16.80
2023-04-16T15:54:33.130Z,16.20
2023-04-16T15:57:35.121Z,15.70
2023-04-16T16:00:36.743Z,15.50
2023-04-16T16:03:38.434Z,14.90
2023-04-16T16:06:40.294Z,14.80
2023-04-16T16:09:46.981Z,14.60
2023-04-16T16:12:48.806Z,14.80
2023-04-16T16:15:50.952Z,14.60
2023-04-16T16:18:52.516Z,14.60
2023-04-16T16:21:54.056Z,14.80
2023-04-16T16:24:57.455Z,14.20
2023-04-16T16:27:59.773Z,14.40
2023-04-16T16:31:01.992Z,14.70
2023-04-16T16:34:03.602Z,14.70
2023-04-16T16:37:05.622Z,14.20
2023-04-16T16:40:07.632Z,14.30
2023-04-16T16:43:09.308Z,14.50
2023-04-16T16:46:11.356Z,14.10
2023-04-16T16:49:13.717Z,14.60
2023-04-16T16:52:15.291Z,14.00
2023-04-16T16:55:18.771Z,14.20
2023-04-16T16:58:20.666Z,13.70
2023-04-16T17:01:22.310Z,14.10
2023-04-16T17:04:24.098Z,13.80
2023-04-16T17:07:25.793Z,14.20
2023-04-16T17:10:27.348Z,13.50
2023-04-16T17:13:30.070Z,13.80
2023-04-16T17:16:31.803Z,13.60
2023-04-16T17:19:33.455Z,14.30
2023-04-16T17:22:36.512Z,13.70
2023-04-16T17:25:38.430Z,13.40
2023-04-16T17:28:40.067Z,13.10
2023-04-16T17:31:42.390Z,13.20
2023-04-16T17:34:43.968Z,12.90
2023-04-16T17:37:45.614Z,13.00
2023-04-16T17:40:47.298Z,13.00
2023-04-16T17:43:51.870Z,12.90
2023-04-16T17:46:53.520Z,13.00
2023-04-16T17:49:55.377Z,12.70
2023-04-16T17:53:02.999Z,12.90
2023-04-16T17:56:04.889Z,12.80
2023-04-16T17:59:06.662Z,13.70
2023-04-16T18:02:08.340Z,12.70
2023-04-16T18:05:10.600Z,12.40
2023-04-16T18:08:12.182Z,13.50
2023-04-16T18:11:13.763Z,12.70
2023-04-16T18:14:19.725Z,12.60
2023-04-16T18:17:24.131Z,12.50
2023-04-16T18:20:28.907Z,12.20
2023-04-16T18:23:30.577Z,12.70
2023-04-16T18:26:35.713Z,12.60
2023-04-16T18:29:39.893Z,12.60
2023-04-16T18:32:56.126Z,12.50
2023-04-16T18:36:03.941Z,13.90
2023-04-16T18:39:07.366Z,11.40
2023-04-16T18:42:08.930Z,13.10
2023-04-16T18:45:13.000Z,12.50
2023-04-16T18:48:15.640Z,12.40
2023-04-16T18:51:17.249Z,12.30
2023-04-16T18:54:20.291Z,12.10
2023-04-16T18:57:21.833Z,12.10
2023-04-16T19:00:23.349Z,12.20
2023-04-16T19:03:27.004Z,12.40
2023-04-16T19:06:29.109Z,12.10
2023-04-16T19:09:30.868Z,12.50
2023-04-16T19:12:32.531Z,12.40
2023-04-16T19:15:34.972Z,12.20
2023-04-16T19:18:37.640Z,12.00
2023-04-16T19:21:39.214Z,13.30
2023-04-16T19:24:40.798Z,12.10
2023-04-16T19:27:42.417Z,12.30
2023-04-16T19:30:46.463Z,12.60
2023-04-16T19:33:48.045Z,12.00
2023-04-16T19:36:49.638Z,12.40
2023-04-16T19:39:51.268Z,12.00
2023-04-16T19:42:52.840Z,12.00
2023-04-16T19:45:54.756Z,12.20
2023-04-16T19:48:56.776Z,12.40
2023-04-16T19:51:58.298Z,12.30
2023-04-16T19:54:59.885Z,12.30
2023-04-16T19:58:05.978Z,12.30
2023-04-16T20:01:11.401Z,12.00
2023-04-16T20:04:13.024Z,12.30
2023-04-16T20:07:14.589Z,11.70
2023-04-16T20:10:16.274Z,12.20
2023-04-16T20:13:18.850Z,12.00
2023-04-16T20:16:23.361Z,11.70
2023-04-16T20:19:29.897Z,12.10
2023-04-16T20:22:31.481Z,12.00
2023-04-16T20:25:33.111Z,11.90
2023-04-16T20:28:35.219Z,11.90
2023-04-16T20:31:36.817Z,11.90
2023-04-16T20:34:38.337Z,11.70
2023-04-16T20:37:41.921Z,11.60
2023-04-16T20:40:44.970Z,11.70
2023-04-16T20:43:50.105Z,11.80
2023-04-16T20:46:55.361Z,11.70
2023-04-16T20:49:58.064Z,11.80
2023-04-16T20:52:59.643Z,11.40
2023-04-16T20:56:01.293Z,11.90
2023-04-16T20:59:08.183Z,11.50
2023-04-16T21:02:09.820Z,12.70
2023-04-16T21:05:14.472Z,11.60
2023-04-16T21:08:20.316Z,11.80
2023-04-16T21:11:21.974Z,9.30
2023-04-16T21:14:23.784Z,11.00
2023-04-16T21:17:25.387Z,11.40
2023-04-16T21:20:28.750Z,11.70
2023-04-16T21:23:31.475Z,11.40
2023-04-16T21:26:33.047Z,11.30
2023-04-16T21:29:34.618Z,13.60
2023-04-16T21:32:36.266Z,11.40
2023-04-16T21:35:37.832Z,12.90
2023-04-16T21:38:39.752Z,11.20
2023-04-16T21:41:41.302Z,11.20
2023-04-16T21:44:42.843Z,11.40
2023-04-16T21:47:44.474Z,10.80
2023-04-16T21:50:46.189Z,11.30
2023-04-16T21:53:47.768Z,10.90
2023-04-16T21:56:49.308Z,11.00
2023-04-16T21:59:50.876Z,10.90
2023-04-16T22:02:56.362Z,11.00
2023-04-16T22:06:00.589Z,10.80
2023-04-16T22:09:02.997Z,11.10
2023-04-16T22:12:14.524Z,11.40
2023-04-16T22:15:16.387Z,10.70
2023-04-16T22:18:18.488Z,10.80
2023-04-16T22:21:20.132Z,11.00
2023-04-16T22:24:24.482Z,11.20
2023-04-16T22:27:26.277Z,11.20
2023-04-16T22:30:27.864Z,10.90
2023-04-16T22:33:30.560Z,11.10
2023-04-16T22:36:32.144Z,11.40
2023-04-16T22:39:34.454Z,11.40
2023-04-16T22:42:36.063Z,11.30
2023-04-16T22:45:37.936Z,11.00
2023-04-16T22:48:39.542Z,13.70
2023-04-16T22:51:41.138Z,10.80
2023-04-16T22:54:42.852Z,11.10
2023-04-16T22:57:44.402Z,11.10
2023-04-16T23:00:47.489Z,11.00
2023-04-16T23:03:49.346Z,11.40
2023-04-16T23:06:51.480Z,11.40
2023-04-16T23:09:53.171Z,11.00
2023-04-16T23:12:54.856Z,10.80
2023-04-16T23:15:56.501Z,11.10
2023-04-16T23:18:58.181Z,11.00
2023-04-16T23:21:59.780Z,10.90
2023-04-16T23:25:01.553Z,11.10
2023-04-16T23:28:03.156Z,11.20
2023-04-16T23:31:07.289Z,11.10
2023-04-16T23:34:09.504Z,11.40
2023-04-16T23:37:11.200Z,12.60
2023-04-16T23:40:12.824Z,11.30
2023-04-16T23:43:14.426Z,11.30
2023-04-16T23:46:16.143Z,11.10
2023-04-16T23:49:17.714Z,11.20
2023-04-16T23:52:19.276Z,11.00
2023-04-16T23:55:20.998Z,11.20
2023-04-16T23:58:22.560Z,11.50
